sensor_id;sensor_type;location;lat;lon;timestamp;temperature;humidity
59855;DHT22;45732;52.850;6.896;2023-03-31T00:00:45;11.40;99.90
59855;DHT22;45732;52.850;6.896;2023-03-31T00:03:12;11.40;99.90
59855;DHT22;45732;52.850;6.896;2023-03-31T00:05:38;11.40;99.90
59855;DHT22;45732;52.850;6.896;2023-03-31T00:08:04;11.40;99.90
59855;DHT22;45732;52.850;6.896;2023-03-31T00:10:33;11.40;99.90
59855;DHT22;45732;52.850;6.896;2023-03-31T00:13:00;11.40;99.90
59855;DHT22;45732;52.850;6.896;2023-03-31T00:15:26;11.40;99.90
59855;DHT22;45732;52.850;6.896;2023-03-31T00:17:52;11.40;99.90
59855;DHT22;45732;52.850;6.896;2023-03-31T00:20:18;11.30;99.90
59855;DHT22;45732;52.850;6.896;2023-03-31T00:22:44;11.30;99.90
59855;DHT22;45732;52.850;6.896;2023-03-31T00:25:13;11.30;99.90
59855;DHT22;45732;52.850;6.896;2023-03-31T00:27:43;11.30;99.90
59855;DHT22;45732;52.850;6.896;2023-03-31T00:30:12;11.20;99.90
59855;DHT22;45732;52.850;6.896;2023-03-31T00:32:38;11.20;99.90
59855;DHT22;45732;52.850;6.896;2023-03-31T00:35:04;11.20;99.90
59855;DHT22;45732;52.850;6.896;2023-03-31T00:37:30;11.10;99.90
59855;DHT22;45732;52.850;6.896;2023-03-31T00:39:58;11.20;99.90
59855;DHT22;45732;52.850;6.896;2023-03-31T00:42:25;11.10;99.90
59855;DHT22;45732;52.850;6.896;2023-03-31T00:45:29;11.10;99.90
59855;DHT22;45732;52.850;6.896;2023-03-31T00:48:07;11.00;99.90
59855;DHT22;45732;52.850;6.896;2023-03-31T00:50:42;11.00;99.90
59855;DHT22;45732;52.850;6.896;2023-03-31T00:53:13;11.00;99.90
59855;DHT22;45732;52.850;6.896;2023-03-31T00:55:48;10.90;99.90
59855;DHT22;45732;52.850;6.896;2023-03-31T00:58:15;10.90;99.90
59855;DHT22;45732;52.850;6.896;2023-03-31T01:00:48;10.80;99.90
59855;DHT22;45732;52.850;6.896;2023-03-31T01:03:17;10.80;99.90
59855;DHT22;45732;52.850;6.896;2023-03-31T01:05:50;10.80;99.90
59855;DHT22;45732;52.850;6.896;2023-03-31T01:08:19;10.80;99.90
59855;DHT22;45732;52.850;6.896;2023-03-31T01:10:55;10.70;99.90
59855;DHT22;45732;52.850;6.896;2023-03-31T01:13:23;10.70;99.90
59855;DHT22;45732;52.850;6.896;2023-03-31T01:15:50;10.70;99.90
59855;DHT22;45732;52.850;6.896;2023-03-31T01:18:16;10.60;99.90
59855;DHT22;45732;52.850;6.896;2023-03-31T01:45:59;10.50;99.90
59855;DHT22;45732;52.850;6.896;2023-03-31T01:51:16;10.40;99.90
59855;DHT22;45732;52.850;6.896;2023-03-31T01:54:29;10.40;99.90
59855;DHT22;45732;52.850;6.896;2023-03-31T01:56:54;10.50;99.90
59855;DHT22;45732;52.850;6.896;2023-03-31T02:00:04;10.40;99.90
59855;DHT22;45732;52.850;6.896;2023-03-31T02:02:28;10.40;99.90
59855;DHT22;45732;52.850;6.896;2023-03-31T02:05:01;10.40;99.90
59855;DHT22;45732;52.850;6.896;2023-03-31T02:07:36;10.50;99.90
59855;DHT22;45732;52.850;6.896;2023-03-31T02:10:06;10.50;99.90
59855;DHT22;45732;52.850;6.896;2023-03-31T02:12:34;10.50;99.90
59855;DHT22;45732;52.850;6.896;2023-03-31T02:15:03;10.40;99.90
59855;DHT22;45732;52.850;6.896;2023-03-31T02:17:30;10.40;99.90
59855;DHT22;45732;52.850;6.896;2023-03-31T02:20:00;10.40;99.90
59855;DHT22;45732;52.850;6.896;2023-03-31T02:22:30;10.40;99.90
59855;DHT22;45732;52.850;6.896;2023-03-31T02:25:00;10.40;99.90
59855;DHT22;45732;52.850;6.896;2023-03-31T02:27:32;10.40;99.90
59855;DHT22;45732;52.850;6.896;2023-03-31T02:29:59;10.40;99.90
59855;DHT22;45732;52.850;6.896;2023-03-31T02:32:40;10.30;99.90
59855;DHT22;45732;52.850;6.896;2023-03-31T02:35:09;10.30;99.90
59855;DHT22;45732;52.850;6.896;2023-03-31T02:37:37;10.40;99.90
59855;DHT22;45732;52.850;6.896;2023-03-31T02:40:10;10.40;99.90
59855;DHT22;45732;52.850;6.896;2023-03-31T02:42:39;10.30;99.90
59855;DHT22;45732;52.850;6.896;2023-03-31T02:45:36;10.30;99.90
59855;DHT22;45732;52.850;6.896;2023-03-31T02:48:04;10.40;99.90
59855;DHT22;45732;52.850;6.896;2023-03-31T02:50:39;10.30;99.90
59855;DHT22;45732;52.850;6.896;2023-03-31T02:53:32;10.30;99.90
59855;DHT22;45732;52.850;6.896;2023-03-31T02:59:19;10.40;99.90
59855;DHT22;45732;52.850;6.896;2023-03-31T03:13:02;10.40;99.90
59855;DHT22;45732;52.850;6.896;2023-03-31T03:15:47;10.40;99.90
59855;DHT22;45732;52.850;6.896;2023-03-31T03:18:14;10.40;99.90
59855;DHT22;45732;52.850;6.896;2023-03-31T03:20:41;10.40;99.90
59855;DHT22;45732;52.850;6.896;2023-03-31T03:23:07;10.50;99.90
59855;DHT22;45732;52.850;6.896;2023-03-31T03:25:33;10.50;99.90
59855;DHT22;45732;52.850;6.896;2023-03-31T03:27:59;10.50;99.90
59855;DHT22;45732;52.850;6.896;2023-03-31T03:30:25;10.50;99.90
59855;DHT22;45732;52.850;6.896;2023-03-31T03:32:51;10.50;99.90
59855;DHT22;45732;52.850;6.896;2023-03-31T03:35:17;10.50;99.90
59855;DHT22;45732;52.850;6.896;2023-03-31T03:37:42;10.50;99.90
59855;DHT22;45732;52.850;6.896;2023-03-31T03:40:08;10.50;99.90
59855;DHT22;45732;52.850;6.896;2023-03-31T03:42:35;10.50;99.90
59855;DHT22;45732;52.850;6.896;2023-03-31T03:45:01;10.60;99.90
59855;DHT22;45732;52.850;6.896;2023-03-31T03:47:27;10.60;99.90
59855;DHT22;45732;52.850;6.896;2023-03-31T03:49:53;10.60;99.90
59855;DHT22;45732;52.850;6.896;2023-03-31T03:52:18;10.60;99.90
59855;DHT22;45732;52.850;6.896;2023-03-31T03:54:45;10.60;99.90
59855;DHT22;45732;52.850;6.896;2023-03-31T03:57:11;10.50;99.90
59855;DHT22;45732;52.850;6.896;2023-03-31T03:59:36;10.50;99.90
59855;DHT22;45732;52.850;6.896;2023-03-31T04:02:02;10.50;99.90
59855;DHT22;45732;52.850;6.896;2023-03-31T04:04:28;10.50;99.90
59855;DHT22;45732;52.850;6.896;2023-03-31T04:06:53;10.40;99.90
59855;DHT22;45732;52.850;6.896;2023-03-31T04:09:19;10.30;99.90
59855;DHT22;45732;52.850;6.896;2023-03-31T04:11:45;10.30;99.90
59855;DHT22;45732;52.850;6.896;2023-03-31T04:14:11;10.30;99.90
59855;DHT22;45732;52.850;6.896;2023-03-31T04:16:37;10.30;99.90
59855;DHT22;45732;52.850;6.896;2023-03-31T04:19:03;10.30;99.90
59855;DHT22;45732;52.850;6.896;2023-03-31T04:21:30;10.30;99.90
59855;DHT22;45732;52.850;6.896;2023-03-31T04:24:00;10.30;99.90
59855;DHT22;45732;52.850;6.896;2023-03-31T04:26:33;10.20;99.90
59855;DHT22;45732;52.850;6.896;2023-03-31T04:29:10;10.20;99.90
59855;DHT22;45732;52.850;6.896;2023-03-31T04:31:37;10.20;99.90
59855;DHT22;45732;52.850;6.896;2023-03-31T04:34:07;10.20;99.90
59855;DHT22;45732;52.850;6.896;2023-03-31T04:36:38;10.20;99.90
59855;DHT22;45732;52.850;6.896;2023-03-31T04:39:08;10.20;99.90
59855;DHT22;45732;52.850;6.896;2023-03-31T04:41:37;10.20;99.90
59855;DHT22;45732;52.850;6.896;2023-03-31T04:44:02;10.20;99.90
59855;DHT22;45732;52.850;6.896;2023-03-31T04:46:28;10.20;99.90
59855;DHT22;45732;52.850;6.896;2023-03-31T04:48:54;10.20;99.90
59855;DHT22;45732;52.850;6.896;2023-03-31T04:51:19;10.20;99.90
59855;DHT22;45732;52.850;6.896;2023-03-31T04:53:45;10.10;99.90
59855;DHT22;45732;52.850;6.896;2023-03-31T04:56:11;10.20;99.90
59855;DHT22;45732;52.850;6.896;2023-03-31T04:58:37;10.20;99.90
59855;DHT22;45732;52.850;6.896;2023-03-31T05:01:04;10.20;99.90
59855;DHT22;45732;52.850;6.896;2023-03-31T05:03:33;10.20;99.90
59855;DHT22;45732;52.850;6.896;2023-03-31T05:05:59;10.20;99.90
59855;DHT22;45732;52.850;6.896;2023-03-31T05:08:24;10.20;99.90
59855;DHT22;45732;52.850;6.896;2023-03-31T05:10:51;10.20;99.90
59855;DHT22;45732;52.850;6.896;2023-03-31T05:13:17;10.10;99.90
59855;DHT22;45732;52.850;6.896;2023-03-31T05:15:43;10.10;99.90
59855;DHT22;45732;52.850;6.896;2023-03-31T05:18:09;10.10;99.90
59855;DHT22;45732;52.850;6.896;2023-03-31T05:20:35;10.10;99.90
59855;DHT22;45732;52.850;6.896;2023-03-31T05:23:01;10.10;99.90
59855;DHT22;45732;52.850;6.896;2023-03-31T05:25:27;10.20;99.90
59855;DHT22;45732;52.850;6.896;2023-03-31T05:27:57;10.20;99.90
59855;DHT22;45732;52.850;6.896;2023-03-31T05:30:24;10.20;99.90
59855;DHT22;45732;52.850;6.896;2023-03-31T05:32:51;10.20;99.90
59855;DHT22;45732;52.850;6.896;2023-03-31T05:35:17;10.20;99.90
59855;DHT22;45732;52.850;6.896;2023-03-31T05:37:42;10.20;99.90
59855;DHT22;45732;52.850;6.896;2023-03-31T05:40:09;10.20;99.90
59855;DHT22;45732;52.850;6.896;2023-03-31T05:42:35;10.20;99.90
59855;DHT22;45732;52.850;6.896;2023-03-31T05:45:01;10.20;99.90
59855;DHT22;45732;52.850;6.896;2023-03-31T05:47:27;10.20;99.90
59855;DHT22;45732;52.850;6.896;2023-03-31T05:49:53;10.20;99.90
59855;DHT22;45732;52.850;6.896;2023-03-31T05:52:18;10.20;99.90
59855;DHT22;45732;52.850;6.896;2023-03-31T05:54:44;10.10;99.90
59855;DHT22;45732;52.850;6.896;2023-03-31T05:57:10;10.20;99.90
59855;DHT22;45732;52.850;6.896;2023-03-31T05:59:36;10.10;99.90
59855;DHT22;45732;52.850;6.896;2023-03-31T06:02:03;10.20;99.90
59855;DHT22;45732;52.850;6.896;2023-03-31T06:04:29;10.20;99.90
59855;DHT22;45732;52.850;6.896;2023-03-31T06:06:57;10.20;99.90
59855;DHT22;45732;52.850;6.896;2023-03-31T06:09:23;10.20;99.90
59855;DHT22;45732;52.850;6.896;2023-03-31T06:11:49;10.20;99.90
59855;DHT22;45732;52.850;6.896;2023-03-31T06:14:15;10.20;99.90
59855;DHT22;45732;52.850;6.896;2023-03-31T06:16:41;10.30;99.90
59855;DHT22;45732;52.850;6.896;2023-03-31T06:19:07;10.30;99.90
59855;DHT22;45732;52.850;6.896;2023-03-31T06:21:32;10.30;99.90
59855;DHT22;45732;52.850;6.896;2023-03-31T06:23:58;10.30;99.90
59855;DHT22;45732;52.850;6.896;2023-03-31T06:26:25;10.30;99.90
59855;DHT22;45732;52.850;6.896;2023-03-31T06:28:52;10.30;99.90
59855;DHT22;45732;52.850;6.896;2023-03-31T06:31:20;10.30;99.90
59855;DHT22;45732;52.850;6.896;2023-03-31T06:33:47;10.30;99.90
59855;DHT22;45732;52.850;6.896;2023-03-31T06:36:15;10.30;99.90
59855;DHT22;45732;52.850;6.896;2023-03-31T06:38:41;10.30;99.90
59855;DHT22;45732;52.850;6.896;2023-03-31T06:41:08;10.30;99.90
59855;DHT22;45732;52.850;6.896;2023-03-31T06:43:36;10.30;99.90
59855;DHT22;45732;52.850;6.896;2023-03-31T06:46:01;10.30;99.90
59855;DHT22;45732;52.850;6.896;2023-03-31T06:48:27;10.20;99.90
59855;DHT22;45732;52.850;6.896;2023-03-31T06:50:55;10.30;99.90
59855;DHT22;45732;52.850;6.896;2023-03-31T06:53:21;10.30;99.90
59855;DHT22;45732;52.850;6.896;2023-03-31T06:55:47;10.30;99.90
59855;DHT22;45732;52.850;6.896;2023-03-31T06:58:13;10.30;99.90
59855;DHT22;45732;52.850;6.896;2023-03-31T07:00:39;10.40;99.90
59855;DHT22;45732;52.850;6.896;2023-03-31T07:03:05;10.30;99.90
59855;DHT22;45732;52.850;6.896;2023-03-31T07:05:33;10.40;99.90
59855;DHT22;45732;52.850;6.896;2023-03-31T07:08:00;10.40;99.90
59855;DHT22;45732;52.850;6.896;2023-03-31T07:10:28;10.40;99.90
59855;DHT22;45732;52.850;6.896;2023-03-31T07:12:54;10.50;99.90
59855;DHT22;45732;52.850;6.896;2023-03-31T07:15:20;10.40;99.90
59855;DHT22;45732;52.850;6.896;2023-03-31T07:17:47;10.40;99.90
59855;DHT22;45732;52.850;6.896;2023-03-31T07:20:17;10.40;99.90
59855;DHT22;45732;52.850;6.896;2023-03-31T07:22:44;10.40;99.90
59855;DHT22;45732;52.850;6.896;2023-03-31T07:25:12;10.40;99.90
59855;DHT22;45732;52.850;6.896;2023-03-31T07:27:38;10.40;99.90
59855;DHT22;45732;52.850;6.896;2023-03-31T07:30:08;10.40;99.90
59855;DHT22;45732;52.850;6.896;2023-03-31T07:32:34;10.30;99.90
59855;DHT22;45732;52.850;6.896;2023-03-31T07:35:05;10.30;99.90
59855;DHT22;45732;52.850;6.896;2023-03-31T07:37:38;10.40;99.90
59855;DHT22;45732;52.850;6.896;2023-03-31T07:40:06;10.40;99.90
59855;DHT22;45732;52.850;6.896;2023-03-31T07:42:33;10.40;99.90
59855;DHT22;45732;52.850;6.896;2023-03-31T07:44:59;10.40;99.90
59855;DHT22;45732;52.850;6.896;2023-03-31T07:47:25;10.50;99.90
59855;DHT22;45732;52.850;6.896;2023-03-31T07:49:52;10.60;99.90
59855;DHT22;45732;52.850;6.896;2023-03-31T07:52:18;10.50;99.90
59855;DHT22;45732;52.850;6.896;2023-03-31T07:54:47;10.60;99.90
59855;DHT22;45732;52.850;6.896;2023-03-31T07:57:13;10.60;99.90
59855;DHT22;45732;52.850;6.896;2023-03-31T07:59:38;10.60;99.90
59855;DHT22;45732;52.850;6.896;2023-03-31T08:02:04;10.60;99.90
59855;DHT22;45732;52.850;6.896;2023-03-31T08:04:30;10.60;99.90
59855;DHT22;45732;52.850;6.896;2023-03-31T08:06:56;10.60;99.90
59855;DHT22;45732;52.850;6.896;2023-03-31T08:09:22;10.70;99.90
59855;DHT22;45732;52.850;6.896;2023-03-31T08:11:48;10.80;99.90
59855;DHT22;45732;52.850;6.896;2023-03-31T08:14:14;10.80;99.90
59855;DHT22;45732;52.850;6.896;2023-03-31T08:16:40;10.80;99.90
59855;DHT22;45732;52.850;6.896;2023-03-31T08:19:05;10.90;99.90
59855;DHT22;45732;52.850;6.896;2023-03-31T08:21:31;10.90;99.90
59855;DHT22;45732;52.850;6.896;2023-03-31T08:23:57;10.90;99.90
59855;DHT22;45732;52.850;6.896;2023-03-31T08:26:23;10.90;99.90
59855;DHT22;45732;52.850;6.896;2023-03-31T08:28:50;10.90;99.90
59855;DHT22;45732;52.850;6.896;2023-03-31T08:31:17;10.90;99.90
59855;DHT22;45732;52.850;6.896;2023-03-31T08:33:44;10.90;99.90
59855;DHT22;45732;52.850;6.896;2023-03-31T08:36:11;10.80;99.90
59855;DHT22;45732;52.850;6.896;2023-03-31T08:38:38;10.80;99.90
59855;DHT22;45732;52.850;6.896;2023-03-31T08:41:14;10.80;99.90
59855;DHT22;45732;52.850;6.896;2023-03-31T08:43:45;10.90;99.90
59855;DHT22;45732;52.850;6.896;2023-03-31T08:46:14;10.90;99.90
59855;DHT22;45732;52.850;6.896;2023-03-31T08:48:44;10.90;99.90
59855;DHT22;45732;52.850;6.896;2023-03-31T08:51:19;10.90;99.90
59855;DHT22;45732;52.850;6.896;2023-03-31T08:53:51;10.80;99.90
59855;DHT22;45732;52.850;6.896;2023-03-31T08:56:21;10.80;99.90
59855;DHT22;45732;52.850;6.896;2023-03-31T08:58:49;10.80;99.90
59855;DHT22;45732;52.850;6.896;2023-03-31T09:09:49;10.90;99.90
59855;DHT22;45732;52.850;6.896;2023-03-31T09:12:24;10.80;99.90
59855;DHT22;45732;52.850;6.896;2023-03-31T09:15:03;10.90;99.90
59855;DHT22;45732;52.850;6.896;2023-03-31T09:17:39;10.90;99.90
59855;DHT22;45732;52.850;6.896;2023-03-31T09:22:44;10.90;99.90
59855;DHT22;45732;52.850;6.896;2023-03-31T09:25:24;10.90;99.90
59855;DHT22;45732;52.850;6.896;2023-03-31T09:27:54;11.00;99.90
59855;DHT22;45732;52.850;6.896;2023-03-31T09:30:22;11.00;99.90
59855;DHT22;45732;52.850;6.896;2023-03-31T09:32:53;11.00;99.90
59855;DHT22;45732;52.850;6.896;2023-03-31T09:35:24;11.10;99.90
59855;DHT22;45732;52.850;6.896;2023-03-31T09:37:53;11.10;99.90
59855;DHT22;45732;52.850;6.896;2023-03-31T09:40:24;11.10;99.90
59855;DHT22;45732;52.850;6.896;2023-03-31T09:42:58;11.20;99.90
59855;DHT22;45732;52.850;6.896;2023-03-31T09:45:24;11.30;99.90
59855;DHT22;45732;52.850;6.896;2023-03-31T09:47:53;11.40;99.90
59855;DHT22;45732;52.850;6.896;2023-03-31T09:50:21;11.30;99.90
59855;DHT22;45732;52.850;6.896;2023-03-31T09:52:58;11.40;99.90
59855;DHT22;45732;52.850;6.896;2023-03-31T09:55:45;11.40;99.90
59855;DHT22;45732;52.850;6.896;2023-03-31T09:58:15;11.30;99.90
59855;DHT22;45732;52.850;6.896;2023-03-31T10:00:43;11.30;99.90
59855;DHT22;45732;52.850;6.896;2023-03-31T10:03:21;11.30;99.90
59855;DHT22;45732;52.850;6.896;2023-03-31T10:05:53;11.40;99.90
59855;DHT22;45732;52.850;6.896;2023-03-31T10:11:08;11.40;99.90
59855;DHT22;45732;52.850;6.896;2023-03-31T10:13:52;11.40;99.90
59855;DHT22;45732;52.850;6.896;2023-03-31T10:16:34;11.40;99.90
59855;DHT22;45732;52.850;6.896;2023-03-31T10:19:19;11.40;99.90
59855;DHT22;45732;52.850;6.896;2023-03-31T10:21:47;11.50;99.90
59855;DHT22;45732;52.850;6.896;2023-03-31T10:24:17;11.50;99.90
59855;DHT22;45732;52.850;6.896;2023-03-31T10:26:47;11.60;99.90
59855;DHT22;45732;52.850;6.896;2023-03-31T10:29:18;11.50;99.90
59855;DHT22;45732;52.850;6.896;2023-03-31T10:31:46;11.60;99.90
59855;DHT22;45732;52.850;6.896;2023-03-31T10:34:14;11.50;99.90
59855;DHT22;45732;52.850;6.896;2023-03-31T10:36:49;11.70;99.90
59855;DHT22;45732;52.850;6.896;2023-03-31T10:39:17;11.70;99.90
59855;DHT22;45732;52.850;6.896;2023-03-31T10:41:49;11.70;99.90
59855;DHT22;45732;52.850;6.896;2023-03-31T10:44:37;11.90;99.90
59855;DHT22;45732;52.850;6.896;2023-03-31T10:47:06;12.00;99.90
59855;DHT22;45732;52.850;6.896;2023-03-31T10:49:43;12.10;99.90
59855;DHT22;45732;52.850;6.896;2023-03-31T10:52:23;12.10;99.90
59855;DHT22;45732;52.850;6.896;2023-03-31T10:54:58;12.10;99.90
59855;DHT22;45732;52.850;6.896;2023-03-31T10:57:48;12.10;99.90
59855;DHT22;45732;52.850;6.896;2023-03-31T11:00:29;12.10;99.90
59855;DHT22;45732;52.850;6.896;2023-03-31T11:03:00;12.10;99.90
59855;DHT22;45732;52.850;6.896;2023-03-31T11:13:38;12.30;99.90
59855;DHT22;45732;52.850;6.896;2023-03-31T11:32:47;12.30;99.90
59855;DHT22;45732;52.850;6.896;2023-03-31T11:45:46;12.30;99.90
59855;DHT22;45732;52.850;6.896;2023-03-31T11:48:32;12.30;99.90
59855;DHT22;45732;52.850;6.896;2023-03-31T11:51:03;12.40;99.90
59855;DHT22;45732;52.850;6.896;2023-03-31T11:53:35;12.40;99.90
59855;DHT22;45732;52.850;6.896;2023-03-31T11:56:03;12.40;99.90
59855;DHT22;45732;52.850;6.896;2023-03-31T11:58:39;12.50;99.90
59855;DHT22;45732;52.850;6.896;2023-03-31T12:01:23;12.50;99.90
59855;DHT22;45732;52.850;6.896;2023-03-31T12:03:55;12.60;99.90
59855;DHT22;45732;52.850;6.896;2023-03-31T12:06:27;12.70;99.90
59855;DHT22;45732;52.850;6.896;2023-03-31T12:09:09;12.60;99.90
59855;DHT22;45732;52.850;6.896;2023-03-31T12:11:52;12.50;99.90
59855;DHT22;45732;52.850;6.896;2023-03-31T12:17:22;12.40;99.90
59855;DHT22;45732;52.850;6.896;2023-03-31T12:19:56;12.40;99.90
59855;DHT22;45732;52.850;6.896;2023-03-31T12:22:30;12.40;99.90
59855;DHT22;45732;52.850;6.896;2023-03-31T12:24:58;12.40;99.90
59855;DHT22;45732;52.850;6.896;2023-03-31T12:27:28;12.40;99.90
59855;DHT22;45732;52.850;6.896;2023-03-31T12:32:30;12.40;99.90
59855;DHT22;45732;52.850;6.896;2023-03-31T12:38:02;12.40;99.90
59855;DHT22;45732;52.850;6.896;2023-03-31T12:40:47;12.50;99.90
59855;DHT22;45732;52.850;6.896;2023-03-31T12:43:41;12.60;99.90
59855;DHT22;45732;52.850;6.896;2023-03-31T12:49:09;12.70;99.90
59855;DHT22;45732;52.850;6.896;2023-03-31T12:57:21;13.10;99.90
59855;DHT22;45732;52.850;6.896;2023-03-31T13:02:39;13.10;99.90
59855;DHT22;45732;52.850;6.896;2023-03-31T13:08:04;13.10;99.90
59855;DHT22;45732;52.850;6.896;2023-03-31T13:10:30;13.10;99.90
59855;DHT22;45732;52.850;6.896;2023-03-31T13:15:28;13.00;99.90
59855;DHT22;45732;52.850;6.896;2023-03-31T13:18:03;13.00;99.90
59855;DHT22;45732;52.850;6.896;2023-03-31T13:20:39;13.10;99.90
59855;DHT22;45732;52.850;6.896;2023-03-31T13:25:57;13.20;99.90
59855;DHT22;45732;52.850;6.896;2023-03-31T13:33:53;13.30;99.90
59855;DHT22;45732;52.850;6.896;2023-03-31T14:05:22;13.20;99.90
59855;DHT22;45732;52.850;6.896;2023-03-31T14:07:21;13.20;99.90
59855;DHT22;45732;52.850;6.896;2023-03-31T14:09:51;13.20;99.90
59855;DHT22;45732;52.850;6.896;2023-03-31T14:14:54;13.10;99.90
59855;DHT22;45732;52.850;6.896;2023-03-31T14:17:25;13.00;99.90
59855;DHT22;45732;52.850;6.896;2023-03-31T14:31:10;12.20;99.90
59855;DHT22;45732;52.850;6.896;2023-03-31T14:38:52;12.10;99.90
59855;DHT22;45732;52.850;6.896;2023-03-31T14:41:20;12.10;99.90
59855;DHT22;45732;52.850;6.896;2023-03-31T14:43:56;12.10;99.90
59855;DHT22;45732;52.850;6.896;2023-03-31T14:46:22;12.10;99.90
59855;DHT22;45732;52.850;6.896;2023-03-31T14:48:50;12.10;99.90
59855;DHT22;45732;52.850;6.896;2023-03-31T14:51:18;12.20;99.90
59855;DHT22;45732;52.850;6.896;2023-03-31T14:53:54;12.20;99.90
59855;DHT22;45732;52.850;6.896;2023-03-31T14:56:26;12.20;99.90
59855;DHT22;45732;52.850;6.896;2023-03-31T14:58:53;12.20;99.90
59855;DHT22;45732;52.850;6.896;2023-03-31T15:01:28;12.30;99.90
59855;DHT22;45732;52.850;6.896;2023-03-31T15:03:54;12.30;99.90
59855;DHT22;45732;52.850;6.896;2023-03-31T15:06:25;12.30;99.90
59855;DHT22;45732;52.850;6.896;2023-03-31T15:08:55;12.30;99.90
59855;DHT22;45732;52.850;6.896;2023-03-31T15:11:22;12.40;99.90
59855;DHT22;45732;52.850;6.896;2023-03-31T15:13:52;12.40;99.90
59855;DHT22;45732;52.850;6.896;2023-03-31T15:19:21;12.50;99.90
59855;DHT22;45732;52.850;6.896;2023-03-31T15:21:56;12.50;99.90
59855;DHT22;45732;52.850;6.896;2023-03-31T15:24:26;12.60;99.90
59855;DHT22;45732;52.850;6.896;2023-03-31T15:27:09;12.60;99.90
59855;DHT22;45732;52.850;6.896;2023-03-31T15:29:41;12.70;99.90
59855;DHT22;45732;52.850;6.896;2023-03-31T15:32:23;12.70;99.90
59855;DHT22;45732;52.850;6.896;2023-03-31T15:34:50;12.70;99.90
59855;DHT22;45732;52.850;6.896;2023-03-31T15:37:23;12.70;99.90
59855;DHT22;45732;52.850;6.896;2023-03-31T15:39:54;12.60;99.90
59855;DHT22;45732;52.850;6.896;2023-03-31T15:42:20;12.60;99.90
59855;DHT22;45732;52.850;6.896;2023-03-31T15:44:53;12.60;99.90
59855;DHT22;45732;52.850;6.896;2023-03-31T15:47:20;12.70;99.90
59855;DHT22;45732;52.850;6.896;2023-03-31T15:50:12;12.70;99.90
59855;DHT22;45732;52.850;6.896;2023-03-31T15:52:48;12.70;99.90
59855;DHT22;45732;52.850;6.896;2023-03-31T15:55:53;12.70;99.90
59855;DHT22;45732;52.850;6.896;2023-03-31T15:58:23;12.70;99.90
59855;DHT22;45732;52.850;6.896;2023-03-31T16:00:53;12.70;99.90
59855;DHT22;45732;52.850;6.896;2023-03-31T16:03:35;12.80;99.90
59855;DHT22;45732;52.850;6.896;2023-03-31T16:06:54;12.80;99.90
59855;DHT22;45732;52.850;6.896;2023-03-31T16:09:01;12.70;99.90
59855;DHT22;45732;52.850;6.896;2023-03-31T16:11:48;12.70;99.90
59855;DHT22;45732;52.850;6.896;2023-03-31T16:14:21;12.80;99.90
59855;DHT22;45732;52.850;6.896;2023-03-31T16:16:53;12.70;99.90
59855;DHT22;45732;52.850;6.896;2023-03-31T16:19:22;12.80;99.90
59855;DHT22;45732;52.850;6.896;2023-03-31T16:21:50;12.70;99.90
59855;DHT22;45732;52.850;6.896;2023-03-31T16:24:19;12.70;99.90
59855;DHT22;45732;52.850;6.896;2023-03-31T16:26:47;12.70;99.90
59855;DHT22;45732;52.850;6.896;2023-03-31T16:29:20;12.70;99.90
59855;DHT22;45732;52.850;6.896;2023-03-31T16:31:46;12.60;99.90
59855;DHT22;45732;52.850;6.896;2023-03-31T16:34:12;12.50;99.90
59855;DHT22;45732;52.850;6.896;2023-03-31T16:36:38;12.30;99.90
59855;DHT22;45732;52.850;6.896;2023-03-31T16:39:05;12.30;99.90
59855;DHT22;45732;52.850;6.896;2023-03-31T16:41:35;12.30;99.90
59855;DHT22;45732;52.850;6.896;2023-03-31T16:44:02;12.20;99.90
59855;DHT22;45732;52.850;6.896;2023-03-31T16:46:28;12.20;99.90
59855;DHT22;45732;52.850;6.896;2023-03-31T16:48:54;12.20;99.90
59855;DHT22;45732;52.850;6.896;2023-03-31T16:51:20;12.20;99.90
59855;DHT22;45732;52.850;6.896;2023-03-31T16:53:46;12.10;99.90
59855;DHT22;45732;52.850;6.896;2023-03-31T16:56:12;12.00;99.90
59855;DHT22;45732;52.850;6.896;2023-03-31T16:58:39;12.10;99.90
59855;DHT22;45732;52.850;6.896;2023-03-31T17:01:06;12.10;99.90
59855;DHT22;45732;52.850;6.896;2023-03-31T17:03:33;12.00;99.90
59855;DHT22;45732;52.850;6.896;2023-03-31T17:06:05;12.00;99.90
59855;DHT22;45732;52.850;6.896;2023-03-31T17:08:31;12.00;99.90
59855;DHT22;45732;52.850;6.896;2023-03-31T17:11:05;11.90;99.90
59855;DHT22;45732;52.850;6.896;2023-03-31T17:13:31;11.90;99.90
59855;DHT22;45732;52.850;6.896;2023-03-31T17:15:58;11.80;99.90
59855;DHT22;45732;52.850;6.896;2023-03-31T17:18:25;11.80;99.90
59855;DHT22;45732;52.850;6.896;2023-03-31T17:20:51;11.80;99.90
59855;DHT22;45732;52.850;6.896;2023-03-31T17:23:19;11.80;99.90
59855;DHT22;45732;52.850;6.896;2023-03-31T17:25:47;11.70;99.90
59855;DHT22;45732;52.850;6.896;2023-03-31T17:28:12;11.80;99.90
59855;DHT22;45732;52.850;6.896;2023-03-31T17:30:38;11.80;99.90
59855;DHT22;45732;52.850;6.896;2023-03-31T17:33:04;11.70;99.90
59855;DHT22;45732;52.850;6.896;2023-03-31T17:35:30;11.70;99.90
59855;DHT22;45732;52.850;6.896;2023-03-31T17:37:55;11.70;99.90
59855;DHT22;45732;52.850;6.896;2023-03-31T17:40:22;11.70;99.90
59855;DHT22;45732;52.850;6.896;2023-03-31T17:42:48;11.70;99.90
59855;DHT22;45732;52.850;6.896;2023-03-31T17:45:14;11.70;99.90
59855;DHT22;45732;52.850;6.896;2023-03-31T17:47:40;11.70;99.90
59855;DHT22;45732;52.850;6.896;2023-03-31T17:50:07;11.70;99.90
59855;DHT22;45732;52.850;6.896;2023-03-31T17:52:34;11.80;99.90
59855;DHT22;45732;52.850;6.896;2023-03-31T17:55:01;11.70;99.90
59855;DHT22;45732;52.850;6.896;2023-03-31T17:57:27;11.60;99.90
59855;DHT22;45732;52.850;6.896;2023-03-31T17:59:53;11.70;99.90
59855;DHT22;45732;52.850;6.896;2023-03-31T18:02:18;11.70;99.90
59855;DHT22;45732;52.850;6.896;2023-03-31T18:04:45;11.60;99.90
59855;DHT22;45732;52.850;6.896;2023-03-31T18:07:11;11.50;99.90
59855;DHT22;45732;52.850;6.896;2023-03-31T18:09:37;11.60;99.90
59855;DHT22;45732;52.850;6.896;2023-03-31T18:12:04;11.50;99.90
59855;DHT22;45732;52.850;6.896;2023-03-31T18:14:29;11.50;99.90
59855;DHT22;45732;52.850;6.896;2023-03-31T18:16:55;11.50;99.90
59855;DHT22;45732;52.850;6.896;2023-03-31T18:19:22;11.40;99.90
59855;DHT22;45732;52.850;6.896;2023-03-31T18:21:49;11.50;99.90
59855;DHT22;45732;52.850;6.896;2023-03-31T18:24:15;11.40;99.90
59855;DHT22;45732;52.850;6.896;2023-03-31T18:26:41;11.40;99.90
59855;DHT22;45732;52.850;6.896;2023-03-31T18:29:07;11.40;99.90
59855;DHT22;45732;52.850;6.896;2023-03-31T18:31:32;11.40;99.90
59855;DHT22;45732;52.850;6.896;2023-03-31T18:33:58;11.40;99.90
59855;DHT22;45732;52.850;6.896;2023-03-31T18:36:25;11.40;99.90
59855;DHT22;45732;52.850;6.896;2023-03-31T18:38:51;11.40;99.90
59855;DHT22;45732;52.850;6.896;2023-03-31T18:41:18;11.40;99.90